Time;durP1;ratioP1;P1;durP2;ratioP2;P2;SDS_P1;SDS_P2;PMS_P1;PMS_P2;Temp;Humidity;BMP_temperature;BMP_pressure;BME280_temperature;BME280_humidity;BME280_pressure;Samples;Min_cycle;Max_cycle;Signal;HPM_P1;HPM_P2
2022/11/25 00:03:48;;;;;;;0.10;0.10;;;;;;;10.53;76.28;100894.31;5072032;28;20384;-80
2022/11/25 00:06:23;;;;;;;0.10;0.10;;;;;;;10.59;76.34;100899.50;5051487;28;20037;-80
2022/11/25 00:08:57;;;;;;;0.20;0.20;;;;;;;10.54;76.48;100898.69;5048656;28;20036;-79
2022/11/25 00:11:24;;;;;;;0.10;0.10;;;;;;;10.54;76.84;100885.44;5065615;28;20123;-80
2022/11/25 00:13:51;;;;;;;0.10;0.10;;;;;;;10.56;76.54;100886.31;5061182;28;20029;-80
2022/11/25 00:16:20;;;;;;;0.10;0.10;;;;;;;10.55;76.68;100887.19;5054944;28;20018;-79
2022/11/25 00:18:54;;;;;;;0.10;0.10;;;;;;;10.55;77.06;100887.19;5047358;28;20487;-79
2022/11/25 00:21:25;;;;;;;1.13;1.08;;;;;;;10.54;77.59;100880.16;5054578;28;20025;-80
2022/11/25 00:23:54;;;;;;;0.22;0.22;;;;;;;10.59;77.87;100885.38;5049881;28;20036;-80
2022/11/25 00:26:22;;;;;;;0.20;0.20;;;;;;;10.65;77.04;100883.50;5055978;28;20021;-80
2022/11/25 00:28:50;;;;;;;0.10;0.10;;;;;;;10.70;77.01;100887.81;5049021;28;20120;-80
2022/11/25 00:31:21;;;;;;;0.10;0.10;;;;;;;10.72;77.07;100896.63;5034915;28;20475;-79
2022/11/25 00:33:48;;;;;;;3.03;1.75;;;;;;;10.72;76.96;100899.28;5048833;28;20051;-80
2022/11/25 00:36:18;;;;;;;0.60;0.60;;;;;;;10.74;76.36;100902.75;5050873;28;20033;-79
2022/11/25 00:38:44;;;;;;;1.55;1.40;;;;;;;10.70;76.87;100901.06;5052552;28;20040;-79
2022/11/25 00:46:45;;;;;;;0.10;0.10;;;;;;;10.73;76.48;100901.88;5054946;28;20049;-79
2022/11/25 00:49:11;;;;;;;0.35;0.35;;;;;;;10.72;76.39;100902.78;5052415;28;20024;-80
2022/11/25 00:51:37;;;;;;;0.10;0.10;;;;;;;10.71;76.77;100897.53;5051121;28;20090;-80
2022/11/25 00:54:03;;;;;;;0.30;0.30;;;;;;;10.67;76.79;100908.16;5052325;28;20029;-80
2022/11/25 00:56:29;;;;;;;0.15;0.15;;;;;;;10.70;76.88;100907.22;5060797;28;20048;-79
2022/11/25 00:58:56;;;;;;;0.10;0.10;;;;;;;10.68;76.89;100914.34;5054143;28;20037;-79
2022/11/25 01:01:23;;;;;;;0.30;0.30;;;;;;;10.66;76.91;100917.00;5077292;28;20013;-80
2022/11/25 01:03:50;;;;;;;0.65;0.60;;;;;;;10.72;77.03;100912.53;5066941;28;20041;-80
2022/11/25 01:06:17;;;;;;;0.10;0.10;;;;;;;10.70;77.46;100916.97;5051237;28;20036;-79
2022/11/25 01:08:43;;;;;;;0.10;0.10;;;;;;;10.66;77.77;100922.31;5049865;28;20044;-79
2022/11/25 01:11:13;;;;;;;0.10;0.10;;;;;;;10.75;77.31;100925.69;5064092;28;20033;-79
2022/11/25 01:13:40;;;;;;;1.55;0.90;;;;;;;10.75;77.33;100931.00;5054494;28;20017;-80
2022/11/25 01:16:09;;;;;;;0.13;0.13;;;;;;;10.80;77.27;100924.72;5043047;28;20033;-79
2022/11/25 01:18:35;;;;;;;0.10;0.10;;;;;;;10.79;77.73;100932.69;5040470;28;20021;-79
2022/11/25 01:23:48;;;;;;;0.10;0.10;;;;;;;10.82;77.32;100937.94;5069917;28;20496;-78
2022/11/25 01:26:17;;;;;;;0.35;0.35;;;;;;;10.87;77.21;100935.19;5060588;28;20036;-78
2022/11/25 01:28:43;;;;;;;0.50;0.50;;;;;;;10.83;77.42;100932.59;5072244;28;20041;-78
2022/11/25 01:31:13;;;;;;;1.23;1.13;;;;;;;10.82;77.23;100933.50;5073207;28;20042;-78
2022/11/25 01:33:40;;;;;;;0.10;0.10;;;;;;;10.81;77.68;100930.88;5073235;28;20032;-78
2022/11/25 01:36:11;;;;;;;0.20;0.20;;;;;;;10.83;77.36;100937.91;5070389;28;20070;-79
2022/11/25 01:38:38;;;;;;;0.20;0.20;;;;;;;10.84;77.21;100934.34;5072123;28;20025;-80
2022/11/25 01:41:07;;;;;;;0.43;0.43;;;;;;;10.84;77.44;100931.69;5062691;28;20290;-79
2022/11/25 01:43:33;;;;;;;0.20;0.20;;;;;;;10.88;76.93;100931.63;5058276;28;20041;-80
2022/11/25 01:48:55;;;;;;;0.10;0.10;;;;;;;10.88;77.96;100932.50;5153568;27;20389;-79
2022/11/25 01:51:33;;;;;;;0.10;0.10;;;;;;;10.92;77.93;100930.69;5117921;28;20064;-79
2022/11/25 01:54:02;;;;;;;34.40;1.25;;;;;;;10.93;78.07;100921.78;5116804;28;20024;-78
2022/11/25 01:56:34;;;;;;;0.10;0.10;;;;;;;10.95;77.53;100912.94;5111833;28;20039;-78
2022/11/25 01:59:01;;;;;;;0.20;0.20;;;;;;;10.97;77.80;100905.81;5108324;28;20032;-78
2022/11/25 02:01:27;;;;;;;0.10;0.10;;;;;;;10.98;77.58;100918.16;5116099;28;20028;-78
2022/11/25 02:03:57;;;;;;;0.65;0.65;;;;;;;10.99;76.99;100919.00;5117973;28;20492;-78
2022/11/25 02:06:27;;;;;;;0.43;0.43;;;;;;;11.00;77.12;100921.66;5117515;28;20111;-78
2022/11/25 02:09:02;;;;;;;0.80;0.50;;;;;;;10.96;77.29;100930.56;5136280;27;20019;-78
2022/11/25 02:11:30;;;;;;;0.10;0.10;;;;;;;10.99;77.19;100925.22;5106906;28;20027;-79
2022/11/25 02:13:58;;;;;;;0.20;0.20;;;;;;;10.97;77.10;100921.72;5104504;28;20393;-79
2022/11/25 02:16:25;;;;;;;0.10;0.10;;;;;;;10.94;77.53;100921.78;5107035;27;20055;-79
2022/11/25 02:18:51;;;;;;;0.45;0.45;;;;;;;10.95;77.69;100922.66;5112189;28;20233;-79
2022/11/25 02:21:24;;;;;;;0.57;0.57;;;;;;;10.91;77.68;100929.78;5106104;28;20059;-78
2022/11/25 02:24:01;;;;;;;0.30;0.30;;;;;;;10.97;77.22;100924.34;5118184;28;20039;-79
2022/11/25 02:26:28;;;;;;;0.10;0.10;;;;;;;10.94;77.28;100923.53;5112434;28;20133;-79
2022/11/25 02:28:57;;;;;;;0.75;0.75;;;;;;;10.90;77.48;100925.38;5114467;28;20024;-78
2022/11/25 02:31:23;;;;;;;0.10;0.10;;;;;;;10.91;77.47;100921.84;5111952;28;20494;-79
2022/11/25 02:33:50;;;;;;;0.10;0.10;;;;;;;10.92;77.18;100920.94;5105857;28;20024;-78
2022/11/25 02:36:19;;;;;;;0.10;0.10;;;;;;;10.88;77.68;100921.91;5117452;28;20107;-79
2022/11/25 02:38:54;;;;;;;0.15;0.15;;;;;;;10.90;77.76;100925.38;5117083;28;20051;-78
2022/11/25 02:41:42;;;;;;;3.50;2.47;;;;;;;10.91;77.51;100936.88;5109551;28;20368;-79
2022/11/25 02:44:08;;;;;;;0.43;0.43;;;;;;;10.87;77.64;100941.38;5108979;28;20032;-78
2022/11/25 02:46:35;;;;;;;0.10;0.10;;;;;;;10.88;77.67;100939.56;5105892;28;20020;-78
2022/11/25 02:49:02;;;;;;;7.63;5.63;;;;;;;10.86;77.37;100939.59;5112774;28;20032;-77
2022/11/25 02:51:31;;;;;;;0.10;0.10;;;;;;;10.89;77.57;100938.69;5118626;28;20024;-77
2022/11/25 02:53:57;;;;;;;0.15;0.15;;;;;;;10.85;77.35;100943.16;5111019;28;20057;-78
2022/11/25 02:56:27;;;;;;;1.27;1.27;;;;;;;10.81;77.76;100937.03;5112620;28;20054;-78
2022/11/25 02:58:53;;;;;;;0.10;0.10;;;;;;;10.76;77.30;100938.06;5106672;28;20024;-78
2022/11/25 03:01:19;;;;;;;0.20;0.20;;;;;;;10.81;77.16;100938.84;5092720;28;20039;-78
2022/11/25 03:03:46;;;;;;;0.17;0.17;;;;;;;10.80;77.25;100937.06;5095380;28;20028;-78
2022/11/25 03:06:12;;;;;;;0.10;0.10;;;;;;;10.80;77.16;100939.72;5089845;28;20055;-78
2022/11/25 03:08:38;;;;;;;0.10;0.10;;;;;;;10.80;77.01;100939.72;5094406;28;20054;-78
2022/11/25 03:11:05;;;;;;;0.10;0.10;;;;;;;10.81;76.92;100945.00;5099295;28;20035;-78
2022/11/25 03:13:31;;;;;;;0.10;0.10;;;;;;;10.77;77.21;100942.47;5109808;28;20036;-78
2022/11/25 03:15:57;;;;;;;1.23;1.23;;;;;;;10.75;77.25;100947.75;5113221;28;20020;-78
2022/11/25 03:18:23;;;;;;;0.10;0.10;;;;;;;10.76;77.14;100943.34;5108281;28;20062;-78
2022/11/25 03:20:54;;;;;;;0.13;0.13;;;;;;;10.76;77.05;100944.22;5100620;28;20024;-79
2022/11/25 03:23:21;;;;;;;0.10;0.10;;;;;;;10.75;76.98;100952.19;5100009;28;20034;-78
2022/11/25 03:25:47;;;;;;;0.10;0.10;;;;;;;10.76;76.75;100965.41;5106224;28;20111;-79
2022/11/25 03:28:13;;;;;;;0.10;0.10;;;;;;;10.73;77.16;100973.44;5093505;28;20020;-79
2022/11/25 03:30:42;;;;;;;11.60;1.10;;;;;;;10.76;76.74;100975.16;5098777;28;20070;-78
2022/11/25 03:33:08;;;;;;;0.10;0.10;;;;;;;10.76;76.81;100964.56;5096613;28;20024;-78
2022/11/25 03:35:35;;;;;;;0.10;0.10;;;;;;;10.76;76.95;100983.09;5092748;28;20512;-78
2022/11/25 03:38:01;;;;;;;0.17;0.17;;;;;;;10.73;76.47;100986.69;5092907;28;20057;-78
2022/11/25 03:40:27;;;;;;;0.17;0.17;;;;;;;10.71;76.82;100987.63;5092820;28;20059;-79
2022/11/25 03:42:53;;;;;;;0.10;0.10;;;;;;;10.72;76.68;100989.38;5099871;28;20127;-78
2022/11/25 03:45:19;;;;;;;0.10;0.10;;;;;;;10.64;76.45;100982.44;5094503;28;20461;-79
2022/11/25 03:47:45;;;;;;;0.10;0.10;;;;;;;10.62;76.06;100994.81;5102684;28;20557;-78
2022/11/25 03:50:13;;;;;;;0.10;0.10;;;;;;;10.60;76.36;100995.75;5097868;28;20032;-79
2022/11/25 03:52:39;;;;;;;0.20;0.20;;;;;;;10.56;76.14;101004.66;5098365;28;20024;-78
2022/11/25 03:55:07;;;;;;;0.10;0.10;;;;;;;10.60;76.32;101012.50;5091093;28;20574;-78
2022/11/25 03:57:33;;;;;;;0.20;0.20;;;;;;;10.51;75.79;101008.25;5100332;28;20027;-78
2022/11/25 03:59:59;;;;;;;0.10;0.10;;;;;;;10.52;76.11;101003.84;5096871;28;20024;-79
2022/11/25 04:02:25;;;;;;;0.20;0.20;;;;;;;10.46;75.82;101010.09;5099378;28;20024;-79
2022/11/25 04:04:51;;;;;;;0.17;0.17;;;;;;;10.41;75.71;101016.41;5097862;28;20028;-78
2022/11/25 04:07:17;;;;;;;0.10;0.10;;;;;;;10.42;75.88;101012.81;5097645;28;20111;-79
2022/11/25 04:09:44;;;;;;;0.10;0.10;;;;;;;10.32;75.81;101007.66;5093184;28;20024;-79
2022/11/25 04:14:56;;;;;;;0.20;0.20;;;;;;;10.26;75.64;101018.34;5095037;28;20405;-79
2022/11/25 04:17:23;;;;;;;0.15;0.15;;;;;;;10.21;75.42;101020.19;5097117;28;20034;-78
2022/11/25 04:19:49;;;;;;;0.10;0.10;;;;;;;10.15;75.77;101026.44;5102307;28;20160;-79
2022/11/25 04:22:17;;;;;;;0.28;0.28;;;;;;;10.13;75.65;101027.38;5094684;28;20578;-78
2022/11/25 04:24:44;;;;;;;0.10;0.10;;;;;;;10.05;75.48;101024.84;5124460;28;20031;-79
2022/11/25 04:27:10;;;;;;;0.10;0.10;;;;;;;10.06;75.62;101021.31;5114152;28;20032;-79
2022/11/25 04:29:36;;;;;;;0.10;0.10;;;;;;;10.02;75.42;101020.47;5099612;28;20036;-79
2022/11/25 04:32:02;;;;;;;0.10;0.10;;;;;;;9.98;75.33;101026.72;5088753;28;20040;-79
2022/11/25 04:34:28;;;;;;;0.10;0.10;;;;;;;9.93;75.76;101036.50;5107762;28;20028;-79
2022/11/25 04:36:54;;;;;;;0.10;0.10;;;;;;;9.92;75.66;101036.50;5095315;28;20035;-79
2022/11/25 04:39:20;;;;;;;0.10;0.10;;;;;;;9.91;75.44;101043.59;5087896;28;20039;-79
2022/11/25 04:41:46;;;;;;;0.10;0.10;;;;;;;9.91;75.43;101046.22;5084775;28;20046;-78
2022/11/25 04:44:12;;;;;;;0.17;0.17;;;;;;;9.86;75.29;101040.13;5098033;28;20028;-79
2022/11/25 04:46:41;;;;;;;0.17;0.17;;;;;;;9.83;75.58;101051.63;5093936;28;20089;-78
2022/11/25 04:49:08;;;;;;;0.10;0.10;;;;;;;9.79;75.67;101059.63;5100347;28;20055;-78
2022/11/25 04:51:34;;;;;;;0.10;0.10;;;;;;;9.77;75.79;101064.94;5096151;28;20046;-78
2022/11/25 04:54:00;;;;;;;0.10;0.10;;;;;;;9.76;76.13;101073.78;5096061;28;20024;-78
2022/11/25 04:56:26;;;;;;;0.10;0.10;;;;;;;9.80;76.03;101074.63;5092348;28;20036;-78
2022/11/25 05:01:39;;;;;;;0.13;0.13;;;;;;;9.81;76.19;101079.88;5091984;28;20517;-77
2022/11/25 05:04:05;;;;;;;0.20;0.20;;;;;;;9.78;76.35;101079.94;5085468;28;20029;-77
2022/11/25 05:06:31;;;;;;;0.10;0.10;;;;;;;9.85;76.45;101075.44;5076613;28;20072;-78
2022/11/25 05:08:57;;;;;;;0.10;0.10;;;;;;;9.86;76.30;101077.19;5090742;28;20035;-78
2022/11/25 05:11:26;;;;;;;0.10;0.10;;;;;;;9.88;75.93;101086.84;5103691;28;20019;-77
2022/11/25 05:13:53;;;;;;;0.03;0.03;;;;;;;9.88;76.11;101085.94;5102633;28;20039;-78
2022/11/25 05:16:19;;;;;;;0.10;0.10;;;;;;;9.90;75.97;101084.19;5083936;28;20458;-78
2022/11/25 05:18:56;;;;;;;0.08;0.08;;;;;;;9.86;76.01;101088.63;5074849;28;20559;-78
2022/11/25 05:21:25;;;;;;;0.10;0.10;;;;;;;9.88;75.88;101083.31;5080707;28;20024;-77
2022/11/25 05:23:52;;;;;;;0.20;0.20;;;;;;;9.79;76.15;101076.38;5089417;28;20568;-78
2022/11/25 05:26:18;;;;;;;0.10;0.10;;;;;;;9.81;76.16;101079.88;5086783;28;20650;-78
2022/11/25 05:28:44;;;;;;;0.10;0.10;;;;;;;9.80;75.93;101083.41;5095231;28;20293;-77
2022/11/25 05:31:11;;;;;;;0.10;0.10;;;;;;;9.76;76.16;101097.59;5100367;28;20190;-77
2022/11/25 05:33:37;;;;;;;0.10;0.10;;;;;;;9.76;76.02;101096.69;5096781;28;20023;-76
2022/11/25 05:36:04;;;;;;;0.52;0.52;;;;;;;9.75;76.25;101108.19;5107997;28;20061;-77
2022/11/25 05:38:30;;;;;;;0.20;0.20;;;;;;;9.76;76.08;101096.69;5091283;28;20153;-78
2022/11/25 05:41:03;;;;;;;0.20;0.20;;;;;;;9.80;75.80;101114.31;5096056;28;20102;-78
2022/11/25 05:43:29;;;;;;;0.10;0.10;;;;;;;9.76;76.10;101113.47;5095267;28;20505;-78
2022/11/25 05:45:55;;;;;;;0.10;0.10;;;;;;;9.74;76.10;101112.59;5101507;28;20128;-78
2022/11/25 05:48:22;;;;;;;0.10;0.10;;;;;;;9.75;76.17;101118.78;5106178;28;20036;-79
2022/11/25 05:50:48;;;;;;;0.10;0.10;;;;;;;9.72;75.97;101122.34;5091662;28;20058;-79
2022/11/25 05:53:16;;;;;;;0.10;0.10;;;;;;;9.69;75.93;101117.97;5095922;28;20091;-78
2022/11/25 05:55:43;;;;;;;0.10;0.10;;;;;;;9.65;76.04;101126.81;5092592;28;20058;-78
2022/11/25 05:58:09;;;;;;;0.10;0.10;;;;;;;9.64;75.82;101135.63;5090910;28;20035;-77
2022/11/25 06:00:35;;;;;;;0.10;0.10;;;;;;;9.59;76.21;101132.19;5091544;28;20024;-77
2022/11/25 06:03:01;;;;;;;0.20;0.20;;;;;;;9.54;76.17;101139.28;5097434;28;20089;-78
2022/11/25 06:05:27;;;;;;;0.25;0.25;;;;;;;9.49;76.28;101139.34;5093237;28;20111;-77
2022/11/25 06:07:54;;;;;;;0.30;0.30;;;;;;;9.49;76.07;101146.41;5090773;28;20405;-78
2022/11/25 06:10:20;;;;;;;0.10;0.10;;;;;;;9.45;76.21;101144.69;5103447;28;20020;-78
2022/11/25 06:12:46;;;;;;;0.10;0.10;;;;;;;9.45;76.34;101156.13;5091958;28;20043;-78
2022/11/25 06:15:12;;;;;;;0.10;0.10;;;;;;;9.41;75.79;101158.81;5092632;28;20031;-79
2022/11/25 06:17:38;;;;;;;0.00;0.00;;;;;;;9.34;76.06;101163.31;5084149;28;20032;-78
2022/11/25 06:20:07;;;;;;;0.10;0.10;;;;;;;9.30;75.94;101153.66;5093778;28;20043;-78
2022/11/25 06:22:35;;;;;;;0.10;0.10;;;;;;;9.31;75.98;101153.63;5100874;28;20090;-79
2022/11/25 06:25:02;;;;;;;0.17;0.17;;;;;;;9.26;75.67;101160.75;5097454;28;20034;-79
2022/11/25 06:27:28;;;;;;;0.20;0.20;;;;;;;9.23;76.15;101160.75;5080076;28;20025;-78
2022/11/25 06:29:54;;;;;;;0.10;0.10;;;;;;;9.17;76.22;101161.72;5080157;28;20111;-79
2022/11/25 06:32:21;;;;;;;0.10;0.10;;;;;;;9.15;76.50;101165.25;5083659;28;20094;-78
2022/11/25 06:34:47;;;;;;;0.10;0.10;;;;;;;9.17;75.79;101168.75;5100775;28;20024;-80
2022/11/25 06:37:13;;;;;;;0.20;0.20;;;;;;;9.14;75.91;101172.28;5119680;28;20043;-78
2022/11/25 06:39:39;;;;;;;0.35;0.35;;;;;;;9.11;75.84;101176.72;5120967;28;20058;-79
2022/11/25 06:42:05;;;;;;;0.10;0.10;;;;;;;9.11;75.82;101182.00;5091725;28;20078;-78
2022/11/25 06:44:31;;;;;;;1.02;1.00;;;;;;;9.07;76.47;101181.16;5097398;28;20035;-79
2022/11/25 06:46:58;;;;;;;0.20;0.20;;;;;;;9.01;76.35;101190.03;5086694;28;20045;-79
2022/11/25 06:49:24;;;;;;;0.10;0.10;;;;;;;9.01;76.40;101191.78;5093300;28;20032;-79
2022/11/25 06:51:50;;;;;;;0.10;0.10;;;;;;;9.01;75.90;101191.78;5096837;28;20386;-79
2022/11/25 06:54:16;;;;;;;0.20;0.20;;;;;;;8.99;75.95;101194.44;5093963;28;20097;-79
2022/11/25 06:56:43;;;;;;;0.10;0.10;;;;;;;8.95;76.38;101198.00;5093827;28;20454;-78
2022/11/25 06:59:09;;;;;;;0.10;0.10;;;;;;;8.90;76.72;101210.38;5097186;28;20063;-78
2022/11/25 07:01:35;;;;;;;0.17;0.17;;;;;;;8.89;76.81;101201.56;5102277;28;20051;-79
2022/11/25 07:04:04;;;;;;;0.10;0.10;;;;;;;8.93;77.03;101210.34;5100739;28;20493;-79
2022/11/25 07:06:32;;;;;;;0.10;0.10;;;;;;;8.93;76.35;101205.06;5093480;28;20651;-79
2022/11/25 07:08:59;;;;;;;0.10;0.10;;;;;;;8.90;76.50;101205.09;5089899;28;20504;-79
2022/11/25 07:11:28;;;;;;;0.13;0.13;;;;;;;8.87;76.85;101210.38;5086486;28;20032;-79
2022/11/25 07:13:56;;;;;;;0.30;0.30;;;;;;;8.87;77.02;101218.31;5092333;28;20027;-78
2022/11/25 07:16:23;;;;;;;0.10;0.10;;;;;;;8.89;76.55;101230.63;5091616;28;20449;-78
2022/11/25 07:18:49;;;;;;;0.47;0.47;;;;;;;8.86;76.76;101221.84;5085555;28;20052;-79
2022/11/25 07:21:18;;;;;;;0.43;0.43;;;;;;;8.90;77.05;101220.94;5090674;28;20028;-79
2022/11/25 07:23:45;;;;;;;0.10;0.10;;;;;;;8.90;76.64;101234.16;5088677;28;20028;-78
2022/11/25 07:26:14;;;;;;;0.25;0.25;;;;;;;8.92;76.48;101237.66;5097481;28;20033;-78
2022/11/25 07:28:40;;;;;;;0.10;0.10;;;;;;;8.89;76.81;101237.69;5075576;28;20149;-78
2022/11/25 07:33:44;;;;;;;0.10;0.10;;;;;;;8.84;76.90;101252.69;5070304;28;20410;-78
2022/11/25 07:36:11;;;;;;;0.00;0.00;;;;;;;8.88;76.56;101259.72;5049831;28;20076;-78
2022/11/25 07:38:38;;;;;;;0.10;0.10;;;;;;;8.88;76.14;101257.06;5040211;28;20045;-78
2022/11/25 07:41:10;;;;;;;0.10;0.10;;;;;;;8.89;76.37;101261.47;5044791;28;20034;-79
2022/11/25 07:43:37;;;;;;;0.10;0.10;;;;;;;8.87;76.37;101263.22;5042742;28;20021;-77
2022/11/25 07:46:22;;;;;;;0.20;0.20;;;;;;;8.93;76.39;101263.19;5065289;28;20057;-78
2022/11/25 07:48:49;;;;;;;0.10;0.10;;;;;;;8.87;76.47;101274.69;5047899;28;20034;-80
2022/11/25 07:51:17;;;;;;;0.20;0.20;;;;;;;8.88;76.71;101279.09;5046992;28;20108;-79
2022/11/25 07:53:44;;;;;;;0.10;0.10;;;;;;;8.89;76.36;101295.81;5048876;28;20037;-79
2022/11/25 07:56:11;;;;;;;0.10;0.10;;;;;;;8.87;76.18;101284.38;5037068;28;20026;-79
2022/11/25 07:58:37;;;;;;;0.20;0.20;;;;;;;8.88;76.16;101286.13;5046124;28;20087;-79
2022/11/25 08:01:05;;;;;;;0.20;0.20;;;;;;;8.90;75.87;101289.66;5037236;28;20025;-80
2022/11/25 08:03:33;;;;;;;0.10;0.10;;;;;;;8.90;76.39;101294.94;5043041;28;20104;-79
2022/11/25 08:06:10;;;;;;;0.15;0.15;;;;;;;8.97;75.93;101307.25;5036899;28;20088;-79
2022/11/25 08:08:38;;;;;;;0.10;0.10;;;;;;;8.93;76.34;101310.75;5042392;28;20057;-79
2022/11/25 08:11:09;;;;;;;0.10;0.10;;;;;;;8.98;76.47;101308.97;5044958;28;20579;-79
2022/11/25 08:13:35;;;;;;;0.10;0.10;;;;;;;9.00;76.20;101319.56;5042733;28;20029;-80
2022/11/25 08:16:02;;;;;;;0.17;0.17;;;;;;;8.98;76.12;101322.19;5033436;28;20034;-80
2022/11/25 08:18:28;;;;;;;0.17;0.17;;;;;;;9.03;76.33;101330.09;5029625;28;20029;-80
2022/11/25 08:21:02;;;;;;;0.20;0.20;;;;;;;9.05;75.71;101331.84;5034175;28;20063;-79
2022/11/25 08:23:28;;;;;;;0.10;0.10;;;;;;;9.04;76.13;101334.50;5039004;28;20043;-79
2022/11/25 08:25:54;;;;;;;0.10;0.10;;;;;;;9.09;76.33;101335.34;5044853;28;20499;-78
2022/11/25 08:28:21;;;;;;;0.20;0.20;;;;;;;9.13;76.20;101334.44;5040011;28;20403;-79
2022/11/25 08:30:47;;;;;;;0.10;0.10;;;;;;;9.18;76.15;101340.59;5048658;28;20037;-80
2022/11/25 08:33:14;;;;;;;0.20;0.20;;;;;;;9.22;75.83;101344.06;5051684;28;20021;-81
2022/11/25 08:35:40;;;;;;;0.20;0.20;;;;;;;9.23;76.02;101344.09;5049958;28;20037;-79
2022/11/25 08:38:08;;;;;;;0.15;0.15;;;;;;;9.32;75.69;101340.50;5050093;28;20029;-78
2022/11/25 08:40:36;;;;;;;0.10;0.10;;;;;;;9.39;75.76;101351.91;5047791;28;20037;-79
2022/11/25 08:43:03;;;;;;;0.10;0.10;;;;;;;9.43;75.87;101350.97;5046505;28;20021;-78
2022/11/25 08:45:29;;;;;;;0.10;0.10;;;;;;;9.48;75.94;101353.59;5035694;28;20021;-78
2022/11/25 08:47:56;;;;;;;0.10;0.10;;;;;;;9.50;75.98;101355.34;5037202;28;20075;-80
2022/11/25 08:50:23;;;;;;;0.22;0.22;;;;;;;9.57;75.78;101355.31;5036961;28;20087;-79
2022/11/25 08:52:52;;;;;;;0.10;0.10;;;;;;;9.60;75.61;101360.59;5056503;28;20017;-79
2022/11/25 08:55:18;;;;;;;0.10;0.10;;;;;;;9.59;75.88;101364.13;5050191;28;20137;-78
2022/11/25 08:57:44;;;;;;;0.20;0.20;;;;;;;9.65;76.06;101364.94;5033216;28;20042;-79
2022/11/25 09:00:11;;;;;;;0.10;0.10;;;;;;;9.68;75.67;101370.22;5025589;28;20168;-78
2022/11/25 09:02:37;;;;;;;0.40;0.40;;;;;;;9.77;75.84;101374.56;5021549;28;20038;-79
2022/11/25 09:05:04;;;;;;;0.10;0.10;;;;;;;9.78;75.32;101376.31;5022583;28;20513;-79
2022/11/25 09:07:30;;;;;;;0.52;0.52;;;;;;;9.84;75.64;101388.59;5024381;28;20057;-79
2022/11/25 09:09:56;;;;;;;0.10;0.10;;;;;;;9.92;75.54;101383.25;5018169;28;20114;-79
2022/11/25 09:12:22;;;;;;;0.20;0.20;;;;;;;9.97;75.69;101390.28;5026800;28;20025;-79
2022/11/25 09:14:48;;;;;;;0.20;0.20;;;;;;;10.03;75.24;101397.25;5031942;28;20036;-78
2022/11/25 09:17:15;;;;;;;0.17;0.17;;;;;;;10.10;75.29;101398.09;5034083;28;20037;-78
2022/11/25 09:19:41;;;;;;;0.10;0.10;;;;;;;10.16;75.07;101403.34;5033028;28;20029;-78
2022/11/25 09:22:07;;;;;;;0.10;0.10;;;;;;;10.21;75.01;101412.13;5034222;28;20434;-79
2022/11/25 09:24:34;;;;;;;0.10;0.10;;;;;;;10.21;74.52;101412.13;5029950;28;20103;-78
2022/11/25 09:27:00;;;;;;;0.73;0.73;;;;;;;10.24;75.05;101406.78;5023695;28;20033;-78
2022/11/25 09:29:29;;;;;;;0.10;0.10;;;;;;;10.32;74.64;101423.47;5019188;28;21210;-79
2022/11/25 09:31:55;;;;;;;0.20;0.20;;;;;;;10.37;74.46;101423.47;5022426;28;20042;-79
2022/11/25 09:34:21;;;;;;;0.30;0.30;;;;;;;10.39;73.84;101424.31;5020504;28;20022;-79
2022/11/25 09:36:47;;;;;;;0.10;0.10;;;;;;;10.46;74.20;101425.16;5022926;28;20048;-79
2022/11/25 09:39:14;;;;;;;0.32;0.32;;;;;;;10.55;74.69;101427.69;5026257;28;20033;-79
2022/11/25 09:50:30;;;;;;;0.10;0.10;;;;;;;10.82;73.83;101449.50;5077566;27;1190484;-79
2022/11/25 09:53:16;;;;;;;0.57;0.57;;;;;;;10.87;73.60;101452.13;5112706;28;20222;-78
2022/11/25 09:55:46;;;;;;;0.13;0.13;;;;;;;10.96;73.33;101460.81;5111298;28;20057;-78
2022/11/25 09:58:36;;;;;;;0.10;0.10;;;;;;;11.05;73.06;101461.63;5106063;28;20064;-77
2022/11/25 10:01:11;;;;;;;0.30;0.30;;;;;;;11.14;73.16;101458.84;5107919;28;20035;-78
2022/11/25 10:03:42;;;;;;;1.35;0.95;;;;;;;11.17;72.68;101459.69;5108484;28;20028;-78
2022/11/25 10:08:48;;;;;;;0.10;0.10;;;;;;;11.28;73.13;101469.28;5080375;27;20416;-78
2022/11/25 10:14:04;;;;;;;0.10;0.10;;;;;;;11.38;72.24;101475.38;5021850;28;20398;-78
2022/11/25 10:16:39;;;;;;;0.10;0.10;;;;;;;11.39;72.21;101478.00;5003985;28;20034;-78
2022/11/25 10:19:46;;;;;;;0.10;0.10;;;;;;;11.54;72.19;101478.66;5004488;28;20018;-77
2022/11/25 10:22:35;;;;;;;0.10;0.10;;;;;;;11.55;71.09;101478.66;5005198;28;20174;-78
2022/11/25 10:25:14;;;;;;;0.20;0.20;;;;;;;11.61;71.91;101483.88;5008183;28;20035;-78
2022/11/25 10:27:47;;;;;;;0.10;0.10;;;;;;;11.63;71.88;101479.41;5008385;28;20033;-78
2022/11/25 10:30:22;;;;;;;0.63;0.63;;;;;;;11.67;70.58;101488.22;5010746;28;20080;-78
2022/11/25 10:32:58;;;;;;;0.20;0.20;;;;;;;11.69;71.36;101482.88;5010155;28;20100;-79
2022/11/25 10:35:32;;;;;;;0.10;0.10;;;;;;;11.79;71.24;101489.84;5008353;28;20049;-80
2022/11/25 10:38:02;;;;;;;0.10;0.10;;;;;;;11.85;71.34;101483.53;5005300;28;20113;-78
2022/11/25 10:40:28;;;;;;;0.10;0.10;;;;;;;11.90;71.27;101485.22;5003526;28;20035;-78
2022/11/25 10:42:55;;;;;;;0.10;0.10;;;;;;;11.98;72.05;101496.63;5005187;28;20019;-78
2022/11/25 10:45:30;;;;;;;0.10;0.10;;;;;;;12.07;70.81;101500.91;5005046;28;20030;-78
2022/11/25 10:50:50;;;;;;;0.10;0.10;;;;;;;12.19;70.31;101507.84;5094050;27;1238107;-79
2022/11/25 10:53:23;;;;;;;0.10;0.10;;;;;;;12.14;70.18;101515.00;5132979;27;20024;-79
2022/11/25 10:56:00;;;;;;;16.15;1.58;;;;;;;12.27;70.40;101523.63;5133807;28;20043;-79
2022/11/25 10:58:33;;;;;;;0.15;0.15;;;;;;;12.32;70.52;101523.56;5124929;28;20050;-79
2022/11/25 11:03:39;;;;;;;0.10;0.10;;;;;;;12.38;69.17;101528.78;5111808;27;20794;-80
2022/11/25 11:06:05;;;;;;;0.30;0.30;;;;;;;12.51;70.23;101538.31;5127247;28;20051;-77
2022/11/25 11:08:39;;;;;;;0.10;0.10;;;;;;;12.61;69.87;101545.22;5124437;28;20044;-78
2022/11/25 11:11:14;;;;;;;0.10;0.10;;;;;;;12.59;68.60;101543.50;5099881;28;20032;-79
2022/11/25 11:13:40;;;;;;;0.60;0.60;;;;;;;12.69;69.57;101541.56;5093460;28;20487;-79
2022/11/25 11:16:32;;;;;;;0.57;0.57;;;;;;;12.82;68.44;101553.72;5107070;28;20036;-79
2022/11/25 11:18:59;;;;;;;0.50;0.50;;;;;;;12.86;68.71;101555.44;5105057;28;20048;-80
2022/11/25 11:21:36;;;;;;;0.28;0.28;;;;;;;12.93;68.15;101557.09;5106880;28;20024;-80
2022/11/25 11:24:22;;;;;;;0.10;0.10;;;;;;;12.95;68.33;101571.22;5103956;28;20108;-80
2022/11/25 11:27:04;;;;;;;0.95;0.95;;;;;;;13.08;67.49;101565.66;5103905;28;20535;-80
2022/11/25 11:29:30;;;;;;;0.10;0.10;;;;;;;13.08;68.39;101578.97;5109993;27;20036;-80
2022/11/25 11:32:05;;;;;;;0.10;0.10;;;;;;;13.09;67.23;101576.25;5104755;27;20024;-79
2022/11/25 11:34:57;;;;;;;0.10;0.10;;;;;;;13.27;67.12;101583.03;5099883;28;20143;-80
2022/11/25 11:40:26;;;;;;;0.60;0.60;;;;;;;13.32;66.36;101585.63;5064575;28;20399;-79
2022/11/25 11:43:08;;;;;;;0.10;0.10;;;;;;;13.35;67.20;101587.34;5062121;28;20036;-80
2022/11/25 11:48:36;;;;;;;0.10;0.10;;;;;;;13.48;67.83;101591.53;5057165;28;20907;-79
2022/11/25 11:51:32;;;;;;;0.10;0.10;;;;;;;13.67;67.74;101593.81;5025366;28;20065;-79
2022/11/25 11:56:45;;;;;;;0.80;0.80;;;;;;;13.77;65.75;101599.81;5146686;27;20380;-78
2022/11/25 11:59:45;;;;;;;1.35;1.10;;;;;;;13.83;66.10;101602.34;5129757;27;20085;-79
2022/11/25 12:02:51;;;;;;;0.10;0.10;;;;;;;13.82;66.54;101606.81;5124737;27;20027;-79
2022/11/25 12:05:22;;;;;;;0.10;0.10;;;;;;;13.78;64.43;101605.09;5102498;28;20081;-78
2022/11/25 12:08:15;;;;;;;0.20;0.20;;;;;;;13.87;65.82;101610.25;5091392;28;20032;-78
2022/11/25 12:10:50;;;;;;;0.10;0.10;;;;;;;13.85;65.91;101622.72;5115643;28;20301;-79
2022/11/25 12:16:07;;;;;;;0.10;0.10;;;;;;;13.78;64.90;101623.75;5113213;27;1182688;-79
2022/11/25 12:19:04;;;;;;;0.00;0.00;;;;;;;13.79;65.65;101622.84;5146696;28;20035;-79
2022/11/25 12:21:53;;;;;;;0.10;0.10;;;;;;;13.79;65.92;101619.31;5112440;28;20024;-79
2022/11/25 12:27:16;;;;;;;0.10;0.10;;;;;;;13.70;65.66;101633.72;5063221;28;20366;-79
2022/11/25 12:29:57;;;;;;;0.20;0.20;;;;;;;13.66;65.77;101642.69;5050675;28;20523;-80
2022/11/25 12:32:45;;;;;;;0.10;0.10;;;;;;;13.80;66.16;101645.91;5043328;28;20056;-79
2022/11/25 12:38:22;;;;;;;0.10;0.10;;;;;;;13.79;66.18;101649.47;5110362;27;20116;-79